Hlavní strana
METAR-TAF:

METAR-TAF

Letiště :

Letiště Katowice

Katovice, Polsko

zeměpisná šířka: 50-28-27N, zeměpisná délka: 019-04-48E, výška: 284 m

Aktuální stav počasí

Zpráva byla vytvořena před 18 minutami, v 01:30 UTC
Severovýchodní vítr 2 kt
Teplota 14°C
Vlhkost vzduchu 94%
Tlak 1021 hPa
Viditelnost: 9000 m

METAR: EPKT 190130Z 05002KT 9000 NSC 14/13 Q1021

Čas: 03:48 (01:48 UTC)

Předpověď počasí

Zpráva byla vytvořena před 2 hodinami a 18 minutami, v 23:30 UTC
Předpověď platná od 19 v 00 UTC do 19 v 24 UTC
vítr z různých směrů 2 kt
Viditelnost 10 km a více
Žádná oblačnost pod 1500 m, nevyskytují se cumulonimby.
Dočasný
od 19 v 02 UTC do 19 v 05 UTC
Viditelnost: 2500 m
kouřmo
Pravděpodobnost 30% :
Dočasný
od 19 v 12 UTC do 19 v 18 UTC
Oblačno až skoro zataženo ve výšce 4000 ft, Cumulonimbus.
bouřka, déšť

TAF: EPKT 182330Z 1900/1924 VRB02KT CAVOK TEMPO 1902/1905 2500 BR PROB30 TEMPO 1912/1918 TSRA BKN040CB

Stav a předpovědi počasí z více než 4 000 letišť (zprávy METAR a TAF).

Červené a žluté tečky na mapě představují dostupné meteorologické stanice.

Když kurzor umístíte na tečku, zobrazí se název stanice.

Pak kliknutím zobrazíte stav a předpověď počasí.

Chcete-li změnit mapu, kliknutím na zelené tlačítko se znaménkem +mapu přiblížíte, kliknutím na zelené tlačítko se znaménkem – mapu oddálíte a kliknutím na zelené šipky přejdete na sousední mapy.


METAR-TAF: